Terminal Aerodrome Forecast
Issued by NWS Wilmington, OH

Home | Current Version | Previous Version | Text Only | Print | Product List | Glossary On
Versions: 1 2 3 4 5 6 7 8 9 10 11 12 13 14 15 16 17 18 19 20 21 22 23
000
FTUS41 KILN 271100
TAFCVG
TAF
KCVG 271138Z 2712/2818 VRB02KT P6SM SCT200
     FM271300 31006KT P6SM BKN150
     FM271600 33007KT P6SM VCTS BKN050CB
     FM272200 02006KT P6SM BKN100
     FM280800 05005KT 5SM BR SCT050 BKN200
     FM281300 07007KT P6SM BKN250=

USA.gov is the U.S. government's official web portal to all federal, state and local government web resources and services.